createdAt,value
2018-06-13T00:01:18.394Z,100.00
2018-06-13T00:03:47.619Z,100.00
2018-06-13T00:06:16.925Z,100.00
2018-06-13T00:08:46.259Z,100.00
2018-06-13T00:11:15.502Z,100.00
2018-06-13T00:13:44.803Z,100.00
2018-06-13T00:16:14.100Z,100.00
2018-06-13T00:18:43.468Z,100.00
2018-06-13T00:21:12.740Z,100.00
2018-06-13T00:23:41.958Z,100.00
2018-06-13T00:26:11.216Z,100.00
2018-06-13T00:28:40.427Z,100.00
2018-06-13T00:31:09.649Z,100.00
2018-06-13T00:33:38.847Z,100.00
2018-06-13T00:36:08.050Z,100.00
2018-06-13T00:38:37.259Z,100.00
2018-06-13T00:41:06.853Z,100.00
2018-06-13T00:43:36.070Z,100.00
2018-06-13T00:46:05.260Z,100.00
2018-06-13T00:48:34.501Z,100.00
2018-06-13T00:51:03.759Z,100.00
2018-06-13T00:53:32.962Z,100.00
2018-06-13T00:56:19.219Z,100.00
2018-06-13T00:58:48.446Z,100.00
2018-06-13T01:01:17.638Z,100.00
2018-06-13T01:03:46.874Z,100.00
2018-06-13T01:06:16.132Z,100.00
2018-06-13T01:08:45.416Z,100.00
2018-06-13T01:11:14.671Z,100.00
2018-06-13T01:13:43.926Z,100.00
2018-06-13T01:16:13.194Z,100.00
2018-06-13T01:18:42.214Z,100.00
2018-06-13T01:21:11.424Z,100.00
2018-06-13T01:23:40.683Z,100.00
2018-06-13T01:26:09.897Z,100.00
2018-06-13T01:28:39.166Z,100.00
2018-06-13T01:31:08.451Z,100.00
2018-06-13T01:33:37.707Z,100.00
2018-06-13T01:36:06.952Z,100.00
2018-06-13T01:38:36.187Z,100.00
2018-06-13T01:41:05.424Z,100.00
2018-06-13T01:43:34.686Z,100.00
2018-06-13T01:46:03.970Z,100.00
2018-06-13T01:48:33.232Z,100.00
2018-06-13T01:51:02.547Z,100.00
2018-06-13T01:53:31.807Z,100.00
2018-06-13T01:56:01.052Z,100.00
2018-06-13T01:58:30.295Z,100.00
2018-06-13T02:00:59.546Z,100.00
2018-06-13T02:03:28.807Z,100.00
2018-06-13T02:05:58.127Z,100.00
2018-06-13T02:08:27.385Z,100.00
2018-06-13T02:10:56.629Z,100.00
2018-06-13T02:13:25.877Z,100.00
2018-06-13T02:15:54.933Z,100.00
2018-06-13T02:18:24.211Z,100.00
2018-06-13T02:20:53.426Z,100.00
2018-06-13T02:23:22.674Z,100.00
2018-06-13T02:25:51.915Z,100.00
2018-06-13T02:28:21.186Z,100.00
2018-06-13T02:30:50.438Z,100.00
2018-06-13T02:33:19.696Z,100.00
2018-06-13T02:35:48.948Z,100.00
2018-06-13T02:38:18.155Z,100.00
2018-06-13T02:40:47.427Z,100.00
2018-06-13T02:43:16.767Z,100.00
2018-06-13T02:45:46.014Z,100.00
2018-06-13T02:48:15.284Z,100.00
2018-06-13T02:50:44.530Z,100.00
2018-06-13T02:53:13.781Z,100.00
2018-06-13T02:55:43.023Z,100.00
2018-06-13T02:58:12.310Z,100.00
2018-06-13T03:00:41.545Z,100.00
2018-06-13T03:03:10.836Z,100.00
2018-06-13T03:05:40.096Z,100.00
2018-06-13T03:08:09.318Z,100.00
2018-06-13T03:10:38.542Z,100.00
2018-06-13T03:13:07.762Z,100.00
2018-06-13T03:15:37.009Z,99.07
2018-06-13T03:18:06.435Z,98.64
2018-06-13T03:20:35.687Z,97.19
2018-06-13T03:23:05.061Z,99.73
2018-06-13T03:25:34.295Z,100.00
2018-06-13T03:28:03.508Z,100.00
2018-06-13T03:30:32.741Z,100.00
2018-06-13T03:33:01.729Z,100.00
2018-06-13T03:35:30.994Z,100.00
2018-06-13T03:38:00.267Z,100.00
2018-06-13T03:40:29.525Z,100.00
2018-06-13T03:42:58.772Z,100.00
2018-06-13T03:45:28.011Z,100.00
2018-06-13T03:47:57.271Z,100.00
2018-06-13T03:50:26.493Z,100.00
2018-06-13T03:52:55.743Z,99.05
2018-06-13T03:55:24.940Z,100.00
2018-06-13T03:57:54.173Z,100.00
2018-06-13T04:00:23.166Z,100.00
2018-06-13T04:02:52.153Z,100.00
2018-06-13T04:05:21.362Z,100.00
2018-06-13T04:07:50.616Z,99.72
2018-06-13T04:10:19.836Z,100.00
2018-06-13T04:12:49.084Z,100.00
2018-06-13T04:15:18.311Z,100.00
2018-06-13T04:17:47.493Z,100.00
2018-06-13T04:20:16.629Z,100.00
2018-06-13T04:22:45.850Z,100.00
2018-06-13T04:25:15.067Z,100.00
2018-06-13T04:27:44.313Z,100.00
2018-06-13T04:30:13.547Z,100.00
2018-06-13T04:32:42.827Z,100.00
2018-06-13T04:35:12.097Z,100.00
2018-06-13T04:37:41.340Z,100.00
2018-06-13T04:40:10.543Z,100.00
2018-06-13T04:42:39.767Z,100.00
2018-06-13T04:45:08.969Z,100.00
2018-06-13T04:47:38.183Z,100.00
2018-06-13T04:50:07.169Z,100.00
2018-06-13T04:52:36.161Z,100.00
2018-06-13T04:55:05.356Z,100.00
2018-06-13T04:57:34.584Z,100.00
2018-06-13T05:00:03.586Z,100.00
2018-06-13T05:02:32.830Z,100.00
2018-06-13T05:05:02.087Z,99.97
2018-06-13T05:07:31.381Z,100.00
2018-06-13T05:10:00.639Z,97.76
2018-06-13T05:12:30.066Z,98.21
2018-06-13T05:14:59.453Z,98.16
2018-06-13T05:17:28.732Z,99.87
2018-06-13T05:19:57.954Z,100.00
2018-06-13T05:22:27.169Z,99.78
2018-06-13T05:24:56.449Z,99.33
2018-06-13T05:27:25.666Z,99.97
2018-06-13T05:29:54.975Z,97.92
2018-06-13T05:32:24.194Z,98.45
2018-06-13T05:34:53.441Z,99.31
2018-06-13T05:37:22.670Z,98.53
2018-06-13T05:39:51.919Z,98.30
2018-06-13T05:42:21.137Z,99.00
2018-06-13T05:44:50.386Z,98.24
2018-06-13T05:47:19.610Z,97.97
2018-06-13T05:49:48.870Z,94.21
2018-06-13T05:52:18.107Z,94.85
2018-06-13T05:54:47.371Z,96.92
2018-06-13T05:57:16.635Z,95.12
2018-06-13T05:59:45.916Z,95.20
2018-06-13T06:02:15.222Z,93.95
2018-06-13T06:04:44.538Z,94.22
2018-06-13T06:07:13.818Z,90.58
2018-06-13T06:09:43.084Z,93.14
2018-06-13T06:12:12.328Z,93.61
2018-06-13T06:14:41.705Z,91.07
2018-06-13T06:17:10.670Z,93.08
2018-06-13T06:19:39.931Z,91.19
2018-06-13T06:22:09.134Z,84.98
2018-06-13T06:24:38.390Z,85.84
2018-06-13T06:27:07.631Z,84.42
2018-06-13T06:29:36.889Z,85.41
2018-06-13T06:32:06.111Z,85.41
2018-06-13T06:34:35.371Z,86.09
2018-06-13T06:37:04.566Z,86.41
2018-06-13T06:39:33.804Z,86.00
2018-06-13T06:42:03.034Z,85.37
2018-06-13T06:44:32.258Z,83.99
2018-06-13T06:47:01.469Z,85.32
2018-06-13T06:49:30.721Z,82.12
2018-06-13T06:52:00.040Z,82.14
2018-06-13T06:54:29.296Z,84.07
2018-06-13T06:56:58.538Z,80.65
2018-06-13T06:59:27.826Z,80.73
2018-06-13T07:01:57.086Z,81.65
2018-06-13T07:04:26.428Z,81.25
2018-06-13T07:06:55.751Z,81.13
2018-06-13T07:09:24.986Z,82.08
2018-06-13T07:11:54.176Z,82.40
2018-06-13T07:14:23.439Z,81.51
2018-06-13T07:16:52.733Z,80.14
2018-06-13T07:19:21.962Z,80.45
2018-06-13T07:21:51.175Z,80.79
2018-06-13T07:24:20.432Z,81.67
2018-06-13T07:26:49.672Z,80.89
2018-06-13T07:29:18.922Z,80.78
2018-06-13T07:31:48.142Z,83.45
2018-06-13T07:34:17.309Z,81.75
2018-06-13T07:36:46.485Z,83.38
2018-06-13T07:39:15.697Z,81.36
2018-06-13T07:41:44.909Z,81.33
2018-06-13T07:44:14.176Z,82.76
2018-06-13T07:46:43.437Z,82.00
2018-06-13T07:49:12.693Z,83.08
2018-06-13T07:51:41.958Z,85.44
2018-06-13T07:54:11.220Z,84.47
2018-06-13T07:56:40.491Z,85.44
2018-06-13T07:59:09.700Z,81.11
2018-06-13T08:01:38.988Z,82.96
2018-06-13T08:04:08.128Z,81.04
2018-06-13T08:06:37.405Z,79.70
2018-06-13T08:09:08.525Z,78.00
2018-06-13T08:11:37.851Z,79.74
2018-06-13T08:14:07.119Z,80.78
2018-06-13T08:16:36.333Z,78.10
2018-06-13T08:19:05.600Z,79.41
2018-06-13T08:21:34.831Z,78.72
2018-06-13T08:24:04.119Z,78.98
2018-06-13T08:26:33.367Z,74.11
2018-06-13T08:29:02.595Z,72.98
2018-06-13T08:31:31.837Z,75.13
2018-06-13T08:34:01.080Z,71.28
2018-06-13T08:36:30.334Z,69.03
2018-06-13T08:38:59.584Z,69.36
2018-06-13T08:41:28.870Z,69.98
2018-06-13T08:43:58.134Z,69.00
2018-06-13T08:46:27.375Z,72.50
2018-06-13T08:48:56.638Z,70.88
2018-06-13T08:51:25.874Z,71.74
2018-06-13T08:53:55.111Z,72.15
2018-06-13T08:56:24.394Z,70.14
2018-06-13T08:58:53.681Z,68.96
2018-06-13T09:01:22.887Z,67.49
2018-06-13T09:03:52.181Z,67.70
2018-06-13T09:06:21.387Z,68.12
2018-06-13T09:08:50.736Z,66.20
2018-06-13T09:11:19.942Z,68.81
2018-06-13T09:13:49.244Z,70.54
2018-06-13T09:16:18.530Z,71.54
2018-06-13T09:18:47.748Z,71.36
2018-06-13T09:21:16.982Z,71.46
2018-06-13T09:23:46.277Z,71.98
2018-06-13T09:26:15.518Z,72.90
2018-06-13T09:28:44.843Z,73.17
2018-06-13T09:31:14.104Z,72.45
2018-06-13T09:33:43.337Z,74.77
2018-06-13T09:36:12.564Z,71.31
2018-06-13T09:38:41.833Z,71.77
2018-06-13T09:41:11.097Z,72.46
2018-06-13T09:43:40.364Z,69.44
2018-06-13T09:46:12.015Z,67.81
2018-06-13T09:48:38.880Z,67.68
2018-06-13T09:51:08.114Z,66.62
2018-06-13T09:53:37.310Z,66.03
2018-06-13T09:56:06.764Z,67.15
2018-06-13T09:59:44.774Z,66.11
2018-06-13T10:02:18.366Z,63.35
2018-06-13T10:04:48.426Z,64.70
2018-06-13T10:07:17.687Z,63.22
2018-06-13T10:09:46.923Z,64.36
2018-06-13T10:12:16.184Z,63.71
2018-06-13T10:14:45.480Z,65.11
2018-06-13T10:17:14.737Z,65.26
2018-06-13T10:19:43.978Z,63.67
2018-06-13T10:22:13.007Z,65.30
2018-06-13T10:24:42.289Z,63.89
2018-06-13T10:27:16.703Z,64.28
2018-06-13T10:29:45.994Z,65.73
2018-06-13T10:32:15.222Z,63.15
2018-06-13T10:34:44.500Z,65.09
2018-06-13T10:37:13.735Z,60.92
2018-06-13T10:39:43.014Z,60.89
2018-06-13T10:42:12.276Z,60.12
2018-06-13T10:44:41.585Z,60.66
2018-06-13T10:47:10.872Z,59.46
2018-06-13T10:49:40.143Z,58.09
2018-06-13T10:52:09.362Z,60.12
2018-06-13T10:54:38.594Z,58.01
2018-06-13T10:57:07.860Z,57.61
2018-06-13T10:59:37.196Z,57.51
2018-06-13T11:02:06.571Z,57.97
2018-06-13T11:04:35.887Z,57.41
2018-06-13T11:07:05.062Z,57.33
2018-06-13T11:09:34.308Z,57.87
2018-06-13T11:12:03.566Z,54.06
2018-06-13T11:14:32.803Z,54.81
2018-06-13T11:17:02.119Z,56.92
2018-06-13T11:19:31.343Z,55.79
2018-06-13T11:22:00.572Z,57.37
2018-06-13T11:24:29.821Z,59.58
2018-06-13T11:26:59.074Z,56.71
2018-06-13T11:29:28.363Z,57.32
2018-06-13T11:31:57.605Z,56.55
2018-06-13T11:34:26.811Z,56.14
2018-06-13T11:36:56.024Z,53.59
2018-06-13T11:39:25.227Z,53.63
2018-06-13T11:41:54.203Z,54.37
2018-06-13T11:44:23.449Z,56.90
2018-06-13T11:46:52.727Z,55.29
2018-06-13T11:49:21.951Z,55.19
2018-06-13T11:51:51.219Z,54.07
2018-06-13T11:54:20.458Z,54.97
2018-06-13T11:56:49.658Z,54.59
2018-06-13T11:59:18.664Z,55.96
2018-06-13T12:01:47.913Z,53.77
2018-06-13T12:04:17.132Z,55.74
2018-06-13T12:06:46.371Z,58.92
2018-06-13T12:09:15.648Z,58.43
2018-06-13T12:11:44.999Z,59.04
2018-06-13T12:14:14.298Z,62.12
2018-06-13T12:16:43.625Z,61.39
2018-06-13T12:19:12.939Z,63.16
2018-06-13T12:21:42.242Z,66.28
2018-06-13T12:24:11.518Z,65.58
2018-06-13T12:26:40.807Z,67.62
2018-06-13T12:29:10.024Z,67.09
2018-06-13T12:31:39.540Z,66.00
2018-06-13T12:34:08.872Z,66.58
2018-06-13T12:36:38.066Z,66.81
2018-06-13T12:39:10.466Z,65.48
2018-06-13T12:41:39.693Z,63.77
2018-06-13T12:44:08.935Z,62.78
2018-06-13T12:46:38.235Z,63.96
2018-06-13T12:49:07.491Z,63.07
2018-06-13T12:51:36.773Z,61.95
2018-06-13T12:54:06.041Z,63.13
2018-06-13T12:56:35.260Z,60.34
2018-06-13T12:59:04.560Z,61.15
2018-06-13T13:01:33.567Z,61.53
2018-06-13T13:04:02.849Z,60.50
2018-06-13T13:06:32.180Z,57.50
2018-06-13T13:09:01.476Z,58.41
2018-06-13T13:11:30.765Z,58.50
2018-06-13T13:14:00.088Z,57.45
2018-06-13T13:16:29.246Z,55.41
2018-06-13T13:18:58.438Z,56.41
2018-06-13T13:21:27.625Z,55.78
2018-06-13T13:23:57.075Z,56.16
2018-06-13T13:26:26.217Z,56.25
2018-06-13T13:28:55.460Z,53.90
2018-06-13T13:31:24.673Z,52.81
2018-06-13T13:33:53.876Z,54.07
2018-06-13T13:36:23.094Z,54.58
2018-06-13T13:38:52.339Z,56.35
2018-06-13T13:41:21.550Z,55.34
2018-06-13T13:43:50.834Z,56.04
2018-06-13T13:46:20.043Z,57.73
2018-06-13T13:48:49.300Z,59.90
2018-06-13T13:51:18.536Z,59.70
2018-06-13T13:53:47.836Z,59.40
2018-06-13T13:56:17.063Z,59.97
2018-06-13T13:58:46.374Z,61.37
2018-06-13T14:01:15.631Z,63.06
2018-06-13T14:03:44.859Z,61.31
2018-06-13T14:06:14.128Z,60.70
2018-06-13T14:08:43.364Z,61.55
2018-06-13T14:11:12.582Z,59.62
2018-06-13T14:13:41.838Z,59.26
2018-06-13T14:16:11.091Z,60.32
2018-06-13T14:18:40.293Z,58.14
2018-06-13T14:21:09.474Z,57.39
2018-06-13T14:23:38.671Z,56.30
2018-06-13T14:26:07.945Z,57.27
2018-06-13T14:28:37.109Z,55.45
2018-06-13T14:31:06.333Z,55.39
2018-06-13T14:33:35.546Z,56.09
2018-06-13T14:36:04.805Z,53.86
2018-06-13T14:38:34.063Z,53.74
2018-06-13T14:41:03.359Z,56.92
2018-06-13T14:43:32.632Z,55.45
2018-06-13T14:46:01.952Z,56.18
2018-06-13T14:48:31.407Z,56.52
2018-06-13T14:51:00.739Z,56.76
2018-06-13T14:53:30.660Z,58.73
2018-06-13T14:56:05.198Z,58.09
2018-06-13T14:58:34.450Z,58.97
2018-06-13T15:01:03.819Z,59.09
2018-06-13T15:03:33.245Z,58.33
2018-06-13T15:06:02.661Z,63.26
2018-06-13T15:08:32.107Z,61.05
2018-06-13T15:11:01.419Z,60.95
2018-06-13T15:13:30.909Z,59.85
2018-06-13T15:16:00.234Z,61.08
2018-06-13T15:18:29.539Z,60.38
2018-06-13T15:20:59.107Z,59.79
2018-06-13T15:23:28.587Z,60.01
2018-06-13T15:25:58.349Z,58.56
2018-06-13T15:28:27.761Z,59.12
2018-06-13T15:30:57.280Z,58.20
2018-06-13T15:33:26.670Z,58.39
2018-06-13T15:35:56.151Z,58.42
2018-06-13T15:38:25.638Z,59.49
2018-06-13T15:40:55.055Z,59.18
2018-06-13T15:43:24.386Z,61.25
2018-06-13T15:45:53.865Z,58.90
2018-06-13T15:48:23.318Z,59.98
2018-06-13T15:50:52.797Z,59.91
2018-06-13T15:53:22.137Z,60.48
2018-06-13T15:55:51.455Z,58.95
2018-06-13T15:58:20.837Z,58.13
2018-06-13T16:00:50.273Z,57.73
2018-06-13T16:03:19.618Z,58.82
2018-06-13T16:05:48.975Z,57.71
2018-06-13T16:08:18.443Z,59.82
2018-06-13T16:10:48.865Z,58.26
2018-06-13T16:13:18.366Z,60.61
2018-06-13T16:15:48.126Z,58.91
2018-06-13T16:18:17.787Z,59.85
2018-06-13T16:20:47.387Z,59.29
2018-06-13T16:23:16.744Z,59.85
2018-06-13T16:25:46.181Z,59.54
2018-06-13T16:28:15.708Z,58.09
2018-06-13T16:30:45.407Z,58.03
2018-06-13T16:33:14.989Z,59.47
2018-06-13T16:35:44.387Z,60.04
2018-06-13T16:38:13.804Z,58.72
2018-06-13T16:40:43.299Z,56.48
2018-06-13T16:43:12.695Z,57.70
2018-06-13T16:45:42.017Z,56.85
2018-06-13T16:48:11.503Z,57.96
2018-06-13T16:51:51.917Z,59.08
2018-06-13T16:54:38.067Z,57.17
2018-06-13T16:57:07.421Z,58.56
2018-06-13T16:59:36.756Z,59.10
2018-06-13T17:02:06.129Z,57.70
2018-06-13T17:04:35.531Z,58.27
2018-06-13T17:07:05.018Z,59.96
2018-06-13T17:09:34.381Z,60.10
2018-06-13T17:12:03.800Z,59.65
2018-06-13T17:14:33.349Z,62.48
2018-06-13T17:17:02.729Z,62.14
2018-06-13T17:19:32.254Z,60.69
2018-06-13T17:22:01.663Z,62.66
2018-06-13T17:24:31.074Z,63.78
2018-06-13T17:27:00.360Z,64.66
2018-06-13T17:29:29.742Z,65.03
2018-06-13T17:31:59.011Z,65.84
2018-06-13T17:34:28.407Z,65.94
2018-06-13T17:36:57.743Z,63.98
2018-06-13T17:39:27.177Z,62.87
2018-06-13T17:41:56.562Z,64.06
2018-06-13T17:44:26.020Z,62.58
2018-06-13T17:46:55.599Z,63.50
2018-06-13T17:49:25.204Z,63.25
2018-06-13T17:51:54.547Z,65.55
2018-06-13T17:54:23.908Z,65.50
2018-06-13T17:56:53.307Z,64.79
2018-06-13T17:59:22.738Z,63.33
2018-06-13T18:01:52.072Z,64.88
2018-06-13T18:04:21.626Z,63.93
2018-06-13T18:06:51.039Z,65.45
2018-06-13T18:09:20.335Z,66.66
2018-06-13T18:11:52.973Z,65.16
2018-06-13T18:14:22.352Z,64.84
2018-06-13T18:16:51.752Z,64.59
2018-06-13T18:19:21.218Z,65.34
2018-06-13T18:21:50.615Z,65.36
2018-06-13T18:24:20.170Z,66.57
2018-06-13T18:26:49.596Z,66.31
2018-06-13T18:29:19.173Z,66.89
2018-06-13T18:31:48.463Z,67.57
2018-06-13T18:34:17.920Z,67.69
2018-06-13T18:36:47.253Z,66.92
2018-06-13T18:39:16.672Z,67.59
2018-06-13T18:41:46.014Z,69.13
2018-06-13T18:44:15.514Z,68.81
2018-06-13T18:46:44.590Z,69.94
2018-06-13T18:49:13.868Z,67.75
2018-06-13T18:51:43.609Z,69.37
2018-06-13T18:54:12.933Z,69.25
2018-06-13T18:56:42.268Z,68.80
2018-06-13T18:59:11.708Z,68.59
2018-06-13T19:01:41.018Z,69.63
2018-06-13T19:04:10.506Z,68.98
2018-06-13T19:06:39.807Z,69.92
2018-06-13T19:09:10.763Z,68.74
2018-06-13T19:11:41.120Z,68.56
2018-06-13T19:14:11.110Z,68.25
2018-06-13T19:16:40.748Z,68.76
2018-06-13T19:19:09.993Z,68.67
2018-06-13T19:21:39.076Z,69.36
2018-06-13T19:24:08.530Z,70.77
2018-06-13T19:26:37.911Z,70.16
2018-06-13T19:29:07.237Z,70.65
2018-06-13T19:31:36.662Z,71.19
2018-06-13T19:34:05.976Z,71.11
2018-06-13T19:36:35.218Z,71.84
2018-06-13T19:39:06.132Z,72.31
2018-06-13T19:41:35.500Z,72.07
2018-06-13T19:44:04.799Z,71.67
2018-06-13T19:46:34.058Z,73.07
2018-06-13T19:49:03.290Z,72.20
2018-06-13T19:51:32.509Z,72.14
2018-06-13T19:54:06.692Z,73.16
2018-06-13T19:56:35.951Z,72.93
2018-06-13T19:59:05.195Z,72.97
2018-06-13T20:01:34.471Z,73.96
2018-06-13T20:04:09.076Z,73.49
2018-06-13T20:06:39.203Z,73.71
2018-06-13T20:09:11.558Z,74.07
2018-06-13T20:11:41.094Z,74.77
2018-06-13T20:14:15.666Z,73.62
2018-06-13T20:16:53.102Z,73.59
2018-06-13T20:19:27.394Z,73.42
2018-06-13T20:21:57.879Z,74.08
2018-06-13T20:24:27.223Z,73.77
2018-06-13T20:27:01.711Z,74.24
2018-06-13T20:29:36.105Z,73.79
2018-06-13T20:32:05.387Z,74.73
2018-06-13T20:34:34.693Z,74.59
2018-06-13T20:37:04.065Z,75.46
2018-06-13T20:39:33.326Z,73.63
2018-06-13T20:42:02.615Z,73.66
2018-06-13T20:44:31.897Z,74.03
2018-06-13T20:47:01.256Z,74.42
2018-06-13T20:49:30.531Z,74.93
2018-06-13T20:51:59.818Z,75.65
2018-06-13T20:54:29.114Z,75.66
2018-06-13T20:56:58.394Z,75.37
2018-06-13T20:59:27.683Z,75.65
2018-06-13T21:01:56.919Z,75.44
2018-06-13T21:04:26.185Z,75.66
2018-06-13T21:06:55.492Z,75.07
2018-06-13T21:09:24.707Z,75.48
2018-06-13T21:14:32.567Z,74.08
2018-06-13T21:17:01.909Z,73.90
2018-06-13T21:19:31.166Z,74.01
2018-06-13T21:22:00.567Z,74.38
2018-06-13T21:24:30.017Z,74.79
2018-06-13T21:26:59.290Z,75.30
2018-06-13T21:29:28.514Z,75.71
2018-06-13T21:31:57.738Z,76.51
2018-06-13T21:34:26.966Z,75.89
2018-06-13T21:36:56.191Z,76.45
2018-06-13T21:39:25.411Z,76.03
2018-06-13T21:41:54.651Z,75.94
2018-06-13T21:44:23.992Z,76.42
2018-06-13T21:46:53.258Z,76.22
2018-06-13T21:49:22.539Z,76.98
2018-06-13T21:51:51.884Z,76.46
2018-06-13T21:54:21.117Z,76.02
2018-06-13T21:56:50.354Z,77.00
2018-06-13T21:59:19.649Z,75.94
2018-06-13T22:01:48.942Z,76.56
2018-06-13T22:04:18.271Z,75.98
2018-06-13T22:06:47.610Z,76.38
2018-06-13T22:09:16.894Z,76.38
2018-06-13T22:11:51.399Z,76.28
2018-06-13T22:14:21.100Z,76.08
2018-06-13T22:16:50.993Z,77.02
2018-06-13T22:19:20.836Z,76.99
2018-06-13T22:21:50.094Z,77.27
2018-06-13T22:24:19.414Z,76.96
2018-06-13T22:26:48.714Z,76.71
2018-06-13T22:29:17.981Z,77.37
2018-06-13T22:31:47.316Z,78.40
2018-06-13T22:34:16.738Z,78.65
2018-06-13T22:36:46.056Z,78.39
2018-06-13T22:39:15.383Z,77.73
2018-06-13T22:41:44.646Z,78.02
2018-06-13T22:44:13.923Z,78.46
2018-06-13T22:46:43.192Z,78.58
2018-06-13T22:49:12.447Z,78.37
2018-06-13T22:51:41.659Z,78.48
2018-06-13T22:54:10.891Z,78.01
2018-06-13T22:56:40.144Z,79.01
2018-06-13T22:59:09.398Z,78.44
2018-06-13T23:01:38.627Z,79.16
2018-06-13T23:04:07.884Z,78.46
2018-06-13T23:06:37.097Z,78.35
2018-06-13T23:09:08.311Z,78.20
2018-06-13T23:11:37.518Z,79.09
2018-06-13T23:14:06.747Z,78.39
2018-06-13T23:16:36.037Z,77.96
2018-06-13T23:19:05.030Z,78.26
2018-06-13T23:21:34.310Z,79.13
2018-06-13T23:24:03.544Z,80.09
2018-06-13T23:26:32.799Z,79.64
2018-06-13T23:29:02.027Z,79.25
2018-06-13T23:31:31.362Z,79.13
2018-06-13T23:34:00.656Z,80.21
2018-06-13T23:36:29.997Z,82.43
2018-06-13T23:38:59.250Z,83.39
2018-06-13T23:41:28.398Z,83.79
2018-06-13T23:43:57.600Z,84.16
2018-06-13T23:46:26.821Z,83.41
2018-06-13T23:48:56.043Z,82.38
2018-06-13T23:51:25.271Z,83.07
2018-06-13T23:53:54.502Z,83.12
2018-06-13T23:56:23.698Z,83.33
2018-06-13T23:58:52.919Z,83.84
